Flight Track Log - Related Links

Times and Time Zones

All times are in EDT time to prevent confusion due to time zone crossing. See the DLH925 flight status page for this flight to view local times or setup timezone preferences in your user account.

Time Position Orientation Groundspeed Altitude Reporting Facility
EDT Latitude Longitude Course Direction KTS MPH feet Rate Location/Type
Sat 04:05:00 AM 51.4244 -0.0210 101° East  Level Estimated
Sat 04:06:00 AM 51.4064 0.1255 101° East  Level Estimated
Sat 04:07:00 AM 51.3881 0.2720 101° East  Level Estimated
Sat 04:08:00 AM 51.3697 0.4183 101° East  Level Estimated
Sat 04:09:00 AM 51.3511 0.5645 101° East  Level Estimated
Sat 04:10:00 AM 51.3323 0.7106 102° East  Level Estimated
Sat 04:11:00 AM 51.3134 0.8566 102° East  Level Estimated
Sat 04:12:00 AM 51.2942 1.0024 102° East  Level Estimated
Sat 04:13:00 AM 51.2749 1.1482 102° East  Level Estimated
Sat 04:14:00 AM 51.2554 1.2938 102° East  Level Estimated
Sat 04:15:00 AM 51.2357 1.4392 102° East  Level Estimated
Sat 04:16:00 AM 51.2158 1.5846 102° East  Level Estimated
Sat 04:17:00 AM 51.1958 1.7298 102° East  Level Estimated
Sat 04:18:00 AM 51.1755 1.8749 102° East  Level Estimated
Sat 04:19:00 AM 51.1551 2.0199 103° East  Level Estimated
Sat 04:20:00 AM 51.1345 2.1647 103° East  Level Estimated
Sat 04:21:00 AM 51.1138 2.3094 103° East  Level Estimated
Sat 04:22:00 AM 51.0928 2.4540 103° East  Level Estimated
Sat 04:23:00 AM 51.0717 2.5985 103° East  Level Estimated
Sat 04:24:00 AM 51.0504 2.7428 103° East  Level Estimated
Sat 04:25:00 AM 51.0289 2.8870 103° East  Level Estimated
Sat 04:26:00 AM 51.0073 3.0310 103° East  Level Estimated
Sat 04:27:00 AM 50.9855 3.1750 103° East  Level Estimated
Sat 04:28:00 AM 50.9635 3.3187 104° East  Level Estimated
Sat 04:29:00 AM 50.9413 3.4624 104° East  Level Estimated
Sat 04:30:00 AM 50.9189 3.6059 104° East  Level Estimated
Sat 04:31:00 AM 50.8964 3.7493 104° East  Level Estimated
Sat 04:32:00 AM 50.8737 3.8925 104° East  Level Estimated
Sat 04:33:00 AM 50.8508 4.0356 104° East  Level Estimated
Sat 04:34:00 AM 50.8277 4.1785 104° East  Level Estimated
Sat 04:35:00 AM 50.8045 4.3214 104° East  Level Estimated
Sat 04:36:00 AM 50.7811 4.4640 104° East  Level Estimated
Sat 04:37:00 AM 50.7575 4.6065 105° East  Level Estimated
Sat 04:38:00 AM 50.7337 4.7489 105° East  Level Estimated
Sat 04:39:00 AM 50.7098 4.8911 105° East  Level Estimated
Sat 04:40:00 AM 50.6857 5.0332 105° East  Level Estimated
Sat 04:41:00 AM 50.6614 5.1752 105° East  Level Estimated
Sat 04:42:00 AM 50.6370 5.3170 105° East  Level Estimated
Sat 04:43:00 AM 50.6123 5.4586 105° East  Level Estimated
Sat 04:44:00 AM 50.5876 5.6001 105° East  Level Estimated
Sat 04:45:00 AM 50.5626 5.7415 105° East  Level Estimated
Sat 04:46:00 AM 50.5375 5.8827 106° East  Level Estimated
Sat 04:47:00 AM 50.5122 6.0237 106° East  Level Estimated
Sat 04:48:00 AM 50.4867 6.1646 106° East  Level Estimated
Sat 04:49:00 AM 50.4610 6.3053 106° East  Level Estimated
Sat 04:50:00 AM 50.4352 6.4459 106° East  Level Estimated
Sat 04:51:00 AM 50.4092 6.5864 106° East  Level Estimated
Sat 04:52:00 AM 50.3831 6.7267 106° East  Level Estimated
Sat 04:53:00 AM 50.3568 6.8668 106° East  Level Estimated
Sat 04:54:00 AM 50.3303 7.0068 106° East  Level Estimated
Sat 04:55:00 AM 50.3036 7.1466 107° East  Level Estimated
Sat 04:56:00 AM 50.2768 7.2862 107° East  Level Estimated
Sat 04:57:00 AM 50.2498 7.4257 107° East  Level Estimated
Sat 04:58:00 AM 50.2226 7.5651 107° East  Level Estimated
Sat 04:59:00 AM 50.1953 7.7042 107° East  Level Estimated
Sat 05:00:00 AM 50.1678 7.8433 107° East  Level Estimated
Sat 05:01:00 AM 50.1402 7.9821 107° East  Level Estimated
Sat 05:02:00 AM 50.1124 8.1208 107° East  Level Estimated
Sat 05:03:00 AM 50.0844 8.2594 107° East  Level Estimated
Sat 05:04:00 AM 50.0562 8.3977 108° East  Level Estimated
Sat 05:05:00 AM 50.0279 8.5360 108° East  Level Estimated
Sat 05:06:00 AM 50.0264 8.5431 108° East  Level Estimated
Sat 05:07:00 AM 50.0264 8.5431 73° East  Level Estimated
Sat 05:08:00 AM 50.0264 8.5431 73° East  Level Estimated
Sat 05:09:00 AM 50.0264 8.5431 73° East  Level Estimated
Sat 05:10:00 AM 50.0264 8.5431 73° East  Level Estimated
Sat 05:11:00 AM 50.0264 8.5431 73° East  Level Estimated
Sat 05:12:00 AM 50.0264 8.5431 73° East  Level Estimated
Sat 05:13:00 AM 50.0264 8.5431 73° East  Level Estimated
Sat 05:14:00 AM 50.0264 8.5431 73° East  Level Estimated
Sat 05:15:00 AM 50.0264 8.5431 73° East  Level Estimated

Login

Don't have an account? Register now (free) for customized features, flight alerts, and more!